createdAt,value
2022-10-22T00:00:57.554Z,16.80
2022-10-22T00:03:25.410Z,16.80
2022-10-22T00:05:53.215Z,16.80
2022-10-22T00:08:22.453Z,16.90
2022-10-22T00:10:50.404Z,17.00
2022-10-22T00:13:18.400Z,17.10
2022-10-22T00:15:46.171Z,17.10
2022-10-22T00:18:14.116Z,17.10
2022-10-22T00:20:41.933Z,17.10
2022-10-22T00:23:09.736Z,17.10
2022-10-22T00:25:38.873Z,17.20
2022-10-22T00:28:06.843Z,17.00
2022-10-22T00:30:34.736Z,17.00
2022-10-22T00:33:02.485Z,17.20
2022-10-22T00:35:30.359Z,17.20
2022-10-22T00:37:58.191Z,17.20
2022-10-22T00:40:26.707Z,17.30
2022-10-22T00:42:56.042Z,17.20
2022-10-22T00:45:25.717Z,17.10
2022-10-22T00:47:58.351Z,17.10
2022-10-22T00:50:30.682Z,17.10
2022-10-22T00:52:59.322Z,17.00
2022-10-22T00:55:28.872Z,16.90
2022-10-22T00:57:59.173Z,16.90
2022-10-22T01:00:27.616Z,16.60
2022-10-22T01:02:56.341Z,16.50
2022-10-22T01:05:24.496Z,16.70
2022-10-22T01:07:54.149Z,16.70
2022-10-22T01:10:43.990Z,16.70
2022-10-22T01:13:24.062Z,16.70
2022-10-22T01:15:59.800Z,16.70
2022-10-22T01:18:36.622Z,16.70
2022-10-22T01:21:14.376Z,16.70
2022-10-22T01:24:24.241Z,16.70
2022-10-22T01:27:16.619Z,16.60
2022-10-22T01:29:50.403Z,16.60
2022-10-22T01:32:20.470Z,16.50
2022-10-22T01:34:53.122Z,16.50
2022-10-22T01:37:25.407Z,16.60
2022-10-22T01:39:53.955Z,16.70
2022-10-22T01:42:21.746Z,16.70
2022-10-22T01:44:51.117Z,16.60
2022-10-22T01:47:29.676Z,16.60
2022-10-22T01:50:19.079Z,16.60
2022-10-22T01:53:17.995Z,16.60
2022-10-22T01:55:57.393Z,16.50
2022-10-22T01:58:36.921Z,16.70
2022-10-22T02:01:14.102Z,16.70
2022-10-22T02:03:46.086Z,16.60
2022-10-22T02:06:18.579Z,16.60
2022-10-22T02:08:47.093Z,16.60
2022-10-22T02:11:16.313Z,16.60
2022-10-22T02:13:47.755Z,16.50
2022-10-22T02:16:19.970Z,16.60
2022-10-22T02:18:51.708Z,16.50
2022-10-22T02:21:19.508Z,16.60
2022-10-22T02:23:47.577Z,16.60
2022-10-22T02:26:22.971Z,16.40
2022-10-22T02:28:59.014Z,16.40
2022-10-22T02:31:31.993Z,16.30
2022-10-22T02:34:05.671Z,16.40
2022-10-22T02:36:33.794Z,16.30
2022-10-22T02:39:02.541Z,16.40
2022-10-22T02:41:30.928Z,16.50
2022-10-22T02:43:58.712Z,16.60
2022-10-22T02:46:28.515Z,16.60
2022-10-22T02:48:56.345Z,16.50
2022-10-22T02:51:24.139Z,16.30
2022-10-22T02:53:51.926Z,16.10
2022-10-22T02:56:19.721Z,16.10
2022-10-22T02:58:47.474Z,16.20
2022-10-22T03:01:16.246Z,16.30
2022-10-22T03:03:45.576Z,16.30
2022-10-22T03:06:13.473Z,16.30
2022-10-22T03:08:41.497Z,16.30
2022-10-22T03:11:09.387Z,16.30
2022-10-22T03:13:37.278Z,16.30
2022-10-22T03:16:05.371Z,16.20
2022-10-22T03:18:33.295Z,16.20
2022-10-22T03:21:10.800Z,16.20
2022-10-22T03:23:39.874Z,16.20
2022-10-22T03:26:08.403Z,16.20
2022-10-22T03:28:37.145Z,16.20
2022-10-22T03:31:04.971Z,16.30
2022-10-22T03:33:32.755Z,16.20
2022-10-22T03:36:01.478Z,16.30
2022-10-22T03:38:31.339Z,16.30
2022-10-22T03:41:02.190Z,16.20
2022-10-22T03:43:30.158Z,16.20
2022-10-22T03:45:57.913Z,16.20
2022-10-22T03:48:25.780Z,16.20
2022-10-22T03:50:53.600Z,16.10
2022-10-22T03:53:21.510Z,15.90
2022-10-22T03:55:50.855Z,15.80
2022-10-22T03:58:18.702Z,15.50
2022-10-22T04:00:46.516Z,15.40
2022-10-22T04:03:14.321Z,15.60
2022-10-22T04:05:42.118Z,15.70
2022-10-22T04:08:09.997Z,15.50
2022-10-22T04:10:37.788Z,15.60
2022-10-22T04:13:06.939Z,15.90
2022-10-22T04:15:34.754Z,15.90
2022-10-22T04:18:02.547Z,16.00
2022-10-22T04:20:30.330Z,16.00
2022-10-22T04:22:58.100Z,16.00
2022-10-22T04:25:25.876Z,16.00
2022-10-22T04:27:53.670Z,15.90
2022-10-22T04:30:22.798Z,15.80
2022-10-22T04:32:50.577Z,15.90
2022-10-22T04:35:18.381Z,15.90
2022-10-22T04:37:46.205Z,15.90
2022-10-22T04:40:14.222Z,15.80
2022-10-22T04:42:42.026Z,15.80
2022-10-22T04:45:10.960Z,15.80
2022-10-22T04:47:40.420Z,15.80
2022-10-22T04:50:09.230Z,15.70
2022-10-22T04:52:37.003Z,15.90
2022-10-22T04:55:05.085Z,15.80
2022-10-22T04:57:33.583Z,15.80
2022-10-22T05:00:01.365Z,15.70
2022-10-22T05:02:29.182Z,15.70
2022-10-22T05:04:58.308Z,15.70
2022-10-22T05:07:26.219Z,15.70
2022-10-22T05:09:54.717Z,15.70
2022-10-22T05:12:22.534Z,15.90
2022-10-22T05:14:50.316Z,15.80
2022-10-22T05:17:18.127Z,15.80
2022-10-22T05:19:45.881Z,15.70
2022-10-22T05:22:15.099Z,15.70
2022-10-22T05:24:42.862Z,15.70
2022-10-22T05:27:10.658Z,15.80
2022-10-22T05:29:38.583Z,15.80
2022-10-22T05:32:06.412Z,15.70
2022-10-22T05:34:36.042Z,15.70
2022-10-22T05:37:03.846Z,15.80
2022-10-22T05:39:36.578Z,15.80
2022-10-22T05:42:04.653Z,15.90
2022-10-22T05:44:32.435Z,15.90
2022-10-22T05:47:00.222Z,15.80
2022-10-22T05:49:28.005Z,15.90
2022-10-22T05:51:55.796Z,15.90
2022-10-22T05:54:23.671Z,15.90
2022-10-22T05:56:52.832Z,15.90
2022-10-22T05:59:20.625Z,15.80
2022-10-22T06:01:48.420Z,15.80
2022-10-22T06:04:17.875Z,15.90
2022-10-22T06:06:48.449Z,15.90
2022-10-22T06:09:18.954Z,15.80
2022-10-22T06:11:47.985Z,15.80
2022-10-22T06:14:19.498Z,15.70
2022-10-22T06:16:47.524Z,15.80
2022-10-22T06:19:17.513Z,15.90
2022-10-22T06:21:46.153Z,15.90
2022-10-22T06:24:14.126Z,15.80
2022-10-22T06:26:42.407Z,15.80
2022-10-22T06:29:10.417Z,15.80
2022-10-22T06:31:39.543Z,15.80
2022-10-22T06:34:09.661Z,15.90
2022-10-22T06:36:37.933Z,15.80
2022-10-22T06:39:06.573Z,15.90
2022-10-22T06:41:34.530Z,15.90
2022-10-22T06:44:02.411Z,15.90
2022-10-22T06:46:31.767Z,15.90
2022-10-22T06:49:04.170Z,15.80
2022-10-22T06:51:32.454Z,15.90
2022-10-22T06:54:00.387Z,15.80
2022-10-22T06:56:29.678Z,15.80
2022-10-22T06:58:59.671Z,15.80
2022-10-22T07:01:29.481Z,15.70
2022-10-22T07:03:57.579Z,15.80
2022-10-22T07:06:27.960Z,15.90
2022-10-22T07:08:58.740Z,15.90
2022-10-22T07:11:28.756Z,16.00
2022-10-22T07:13:58.352Z,16.00
2022-10-22T07:16:31.315Z,16.00
2022-10-22T07:19:00.405Z,16.10
2022-10-22T07:21:30.466Z,16.10
2022-10-22T07:23:59.013Z,16.10
2022-10-22T07:26:30.611Z,16.10
2022-10-22T07:28:58.626Z,16.20
2022-10-22T07:31:26.471Z,16.20
2022-10-22T07:33:54.320Z,16.30
2022-10-22T07:36:22.386Z,16.30
2022-10-22T07:38:56.223Z,16.40
2022-10-22T07:41:24.641Z,16.30
2022-10-22T07:43:52.648Z,16.40
2022-10-22T07:46:20.622Z,16.40
2022-10-22T07:48:48.469Z,16.40
2022-10-22T07:51:17.580Z,16.40
2022-10-22T07:53:45.375Z,16.50
2022-10-22T07:56:14.939Z,16.50
2022-10-22T07:58:42.746Z,16.50
2022-10-22T08:01:10.601Z,16.70
2022-10-22T08:03:38.454Z,16.80
2022-10-22T08:06:06.734Z,16.80
2022-10-22T08:08:34.717Z,17.10
2022-10-22T08:11:03.037Z,17.40
2022-10-22T08:13:32.226Z,17.50
2022-10-22T08:16:01.081Z,17.70
2022-10-22T08:18:29.915Z,17.90
2022-10-22T08:20:58.652Z,17.90
2022-10-22T08:23:28.636Z,18.10
2022-10-22T08:25:57.293Z,18.10
2022-10-22T08:28:25.550Z,18.10
2022-10-22T08:30:54.760Z,18.30
2022-10-22T08:33:23.021Z,18.40
2022-10-22T08:35:51.627Z,18.40
2022-10-22T08:38:20.163Z,18.50
2022-10-22T08:40:50.800Z,18.60
2022-10-22T08:43:46.185Z,18.40
2022-10-22T08:46:28.712Z,18.60
2022-10-22T08:48:58.589Z,18.50
2022-10-22T08:51:31.444Z,18.60
2022-10-22T08:54:13.246Z,18.80
2022-10-22T08:56:44.230Z,18.90
2022-10-22T08:59:19.238Z,19.00
2022-10-22T09:01:50.304Z,18.90
2022-10-22T09:04:25.398Z,18.70
2022-10-22T09:06:54.665Z,18.80
2022-10-22T09:09:22.801Z,18.80
2022-10-22T09:11:52.669Z,18.80
2022-10-22T09:14:23.050Z,19.10
2022-10-22T09:17:11.510Z,19.20
2022-10-22T09:19:49.835Z,19.20
2022-10-22T09:22:30.208Z,19.20
2022-10-22T09:25:03.057Z,19.30
2022-10-22T09:27:32.583Z,19.50
2022-10-22T09:30:02.492Z,19.60
2022-10-22T09:32:33.003Z,19.70
2022-10-22T09:35:00.997Z,19.70
2022-10-22T09:37:30.880Z,19.80
2022-10-22T09:40:05.368Z,19.90
2022-10-22T09:42:34.828Z,19.90
2022-10-22T09:45:02.646Z,19.90
2022-10-22T09:47:43.326Z,19.80
2022-10-22T09:50:27.541Z,19.80
2022-10-22T09:53:01.885Z,19.90
2022-10-22T09:55:30.278Z,20.00
2022-10-22T09:58:00.611Z,20.30
2022-10-22T10:00:29.139Z,20.10
2022-10-22T10:03:00.222Z,20.20
2022-10-22T10:05:30.792Z,20.20
2022-10-22T10:07:59.407Z,20.30
2022-10-22T10:10:42.758Z,20.40
2022-10-22T10:13:30.260Z,20.60
2022-10-22T10:16:08.457Z,20.50
2022-10-22T10:18:53.395Z,20.60
2022-10-22T10:21:29.084Z,20.70
2022-10-22T10:24:02.322Z,20.70
2022-10-22T10:26:38.400Z,20.80
2022-10-22T10:29:18.378Z,20.80
2022-10-22T10:32:03.738Z,20.90
2022-10-22T10:34:44.712Z,20.70
2022-10-22T10:37:21.831Z,20.40
2022-10-22T10:40:04.157Z,20.40
2022-10-22T10:42:37.649Z,20.30
2022-10-22T10:45:16.853Z,20.10
2022-10-22T10:48:02.124Z,20.20
2022-10-22T10:50:40.172Z,20.20
2022-10-22T10:53:18.497Z,20.40
2022-10-22T10:55:59.967Z,20.60
2022-10-22T10:58:35.835Z,20.50
2022-10-22T11:01:14.962Z,20.60
2022-10-22T11:04:10.101Z,20.80
2022-10-22T11:06:40.797Z,20.90
2022-10-22T11:09:19.964Z,21.30
2022-10-22T11:11:52.433Z,21.40
2022-10-22T11:14:26.501Z,21.20
2022-10-22T11:17:01.759Z,21.30
2022-10-22T11:19:53.780Z,21.30
2022-10-22T11:22:30.511Z,21.30
2022-10-22T11:25:03.421Z,21.50
2022-10-22T11:27:37.304Z,21.50
2022-10-22T11:30:13.299Z,21.80
2022-10-22T11:32:44.832Z,21.60
2022-10-22T11:35:17.120Z,21.40
2022-10-22T11:37:48.417Z,21.40
2022-10-22T11:40:19.936Z,21.50
2022-10-22T11:42:53.259Z,21.50
2022-10-22T11:45:32.966Z,21.70
2022-10-22T11:48:08.951Z,21.80
2022-10-22T11:50:50.652Z,22.10
2022-10-22T11:53:27.314Z,21.80
2022-10-22T11:55:59.700Z,21.80
2022-10-22T11:58:42.139Z,22.00
2022-10-22T12:01:24.312Z,21.90
2022-10-22T12:03:53.855Z,22.00
2022-10-22T12:06:24.339Z,21.60
2022-10-22T12:09:03.591Z,21.50
2022-10-22T12:11:38.334Z,21.60
2022-10-22T12:14:18.875Z,21.70
2022-10-22T12:16:57.483Z,21.70
2022-10-22T12:19:28.511Z,21.70
2022-10-22T12:21:59.349Z,21.90
2022-10-22T12:24:35.409Z,21.80
2022-10-22T12:27:03.395Z,21.50
2022-10-22T12:29:33.690Z,21.50
2022-10-22T12:32:05.051Z,21.40
2022-10-22T12:34:32.815Z,21.40
2022-10-22T12:37:00.684Z,21.60
2022-10-22T12:39:29.966Z,21.70
2022-10-22T12:41:57.772Z,21.40
2022-10-22T12:44:25.554Z,21.60
2022-10-22T12:46:56.837Z,21.40
2022-10-22T12:49:32.622Z,21.60
2022-10-22T12:52:03.648Z,21.80
2022-10-22T12:54:34.397Z,21.90
2022-10-22T12:57:03.131Z,21.80
2022-10-22T12:59:35.531Z,21.60
2022-10-22T13:02:07.908Z,21.40
2022-10-22T13:04:39.378Z,21.40
2022-10-22T13:07:22.455Z,21.40
2022-10-22T13:10:00.899Z,21.40
2022-10-22T13:12:35.561Z,21.10
2022-10-22T13:15:22.238Z,21.20
2022-10-22T13:17:50.820Z,21.30
2022-10-22T13:20:21.838Z,21.50
2022-10-22T13:23:00.149Z,21.50
2022-10-22T13:25:31.756Z,21.50
2022-10-22T13:28:01.791Z,21.60
2022-10-22T13:30:31.579Z,21.50
2022-10-22T13:33:01.908Z,21.50
2022-10-22T13:35:33.064Z,21.60
2022-10-22T13:38:01.453Z,21.70
2022-10-22T13:40:30.871Z,21.60
2022-10-22T13:42:58.643Z,21.70
2022-10-22T13:45:26.434Z,21.70
2022-10-22T13:47:55.426Z,21.60
2022-10-22T13:50:23.224Z,21.70
2022-10-22T13:52:53.767Z,21.70
2022-10-22T13:55:25.455Z,21.80
2022-10-22T13:57:56.364Z,21.80
2022-10-22T14:00:26.632Z,21.80
2022-10-22T14:02:58.330Z,21.90
2022-10-22T14:05:26.507Z,21.80
2022-10-22T14:07:54.525Z,21.70
2022-10-22T14:10:24.250Z,21.50
2022-10-22T14:12:56.443Z,21.60
2022-10-22T14:15:26.441Z,21.50
2022-10-22T14:17:57.479Z,21.60
2022-10-22T14:20:28.505Z,21.70
2022-10-22T14:22:56.627Z,21.60
2022-10-22T14:25:26.433Z,21.30
2022-10-22T14:27:56.505Z,21.30
2022-10-22T14:30:26.826Z,21.30
2022-10-22T14:32:54.654Z,21.30
2022-10-22T14:35:23.669Z,21.30
2022-10-22T14:37:51.754Z,21.20
2022-10-22T14:40:21.498Z,21.40
2022-10-22T14:42:50.434Z,21.30
2022-10-22T14:45:22.093Z,21.20
2022-10-22T14:47:50.545Z,21.40
2022-10-22T14:50:18.817Z,21.40
2022-10-22T14:52:46.792Z,21.40
2022-10-22T14:55:16.464Z,21.50
2022-10-22T14:57:44.761Z,21.50
2022-10-22T15:00:15.883Z,21.50
2022-10-22T15:02:45.488Z,21.40
2022-10-22T15:05:13.651Z,21.50
2022-10-22T15:07:41.876Z,21.40
2022-10-22T15:10:11.143Z,21.10
2022-10-22T15:12:38.979Z,20.90
2022-10-22T15:15:08.169Z,20.70
2022-10-22T15:17:35.989Z,20.40
2022-10-22T15:20:06.159Z,19.60
2022-10-22T15:22:35.524Z,19.20
2022-10-22T15:25:04.822Z,19.10
2022-10-22T15:27:32.646Z,18.70
2022-10-22T15:30:00.511Z,18.70
2022-10-22T15:32:29.177Z,18.70
2022-10-22T15:34:57.271Z,18.50
2022-10-22T15:37:26.401Z,18.80
2022-10-22T15:39:57.029Z,18.80
2022-10-22T15:42:24.889Z,18.50
2022-10-22T15:44:59.670Z,18.90
2022-10-22T15:47:29.480Z,19.10
2022-10-22T15:49:58.194Z,19.40
2022-10-22T15:52:27.524Z,19.60
2022-10-22T15:54:55.415Z,19.70
2022-10-22T15:57:23.314Z,19.70
2022-10-22T15:59:51.860Z,19.70
2022-10-22T16:02:19.699Z,19.70
2022-10-22T16:04:47.863Z,19.70
2022-10-22T16:07:15.741Z,19.70
2022-10-22T16:09:44.877Z,19.70
2022-10-22T16:12:15.280Z,19.40
2022-10-22T16:14:45.130Z,19.40
2022-10-22T16:17:13.063Z,19.40
2022-10-22T16:19:40.941Z,19.40
2022-10-22T16:22:10.115Z,19.30
2022-10-22T16:24:40.279Z,19.30
2022-10-22T16:27:09.986Z,19.30
2022-10-22T16:29:38.888Z,19.10
2022-10-22T16:32:07.464Z,19.00
2022-10-22T16:34:35.290Z,19.10
2022-10-22T16:37:03.073Z,19.10
2022-10-22T16:39:30.831Z,19.10
2022-10-22T16:41:58.691Z,19.00
2022-10-22T16:44:27.953Z,19.10
2022-10-22T16:46:55.806Z,19.00
2022-10-22T16:49:23.640Z,18.90
2022-10-22T16:51:51.462Z,18.80
2022-10-22T16:54:21.631Z,18.90
2022-10-22T16:56:49.515Z,18.70
2022-10-22T16:59:17.350Z,18.60
2022-10-22T17:01:46.487Z,18.10
2022-10-22T17:04:14.457Z,18.10
2022-10-22T17:06:42.239Z,18.30
2022-10-22T17:09:10.777Z,18.30
2022-10-22T17:11:40.255Z,18.40
2022-10-22T17:14:10.702Z,18.40
2022-10-22T17:16:38.486Z,18.20
2022-10-22T17:19:07.633Z,17.90
2022-10-22T17:21:35.505Z,17.70
2022-10-22T17:24:03.407Z,18.00
2022-10-22T17:26:33.245Z,18.10
2022-10-22T17:29:01.105Z,18.10
2022-10-22T17:31:32.687Z,18.20
2022-10-22T17:34:00.885Z,18.30
2022-10-22T17:36:35.658Z,18.30
2022-10-22T17:39:07.051Z,18.30
2022-10-22T17:41:38.531Z,18.30
2022-10-22T17:44:09.876Z,18.30
2022-10-22T17:46:38.277Z,18.40
2022-10-22T17:49:09.286Z,18.20
2022-10-22T17:51:41.859Z,18.30
2022-10-22T17:54:10.218Z,18.30
2022-10-22T17:56:40.154Z,18.30
2022-10-22T17:59:10.587Z,18.20
2022-10-22T18:01:45.038Z,18.20
2022-10-22T18:04:16.052Z,18.20
2022-10-22T18:06:46.099Z,18.20
2022-10-22T18:09:18.430Z,18.20
2022-10-22T18:11:47.466Z,18.00
2022-10-22T18:14:15.383Z,18.00
2022-10-22T18:16:43.175Z,17.90
2022-10-22T18:19:12.076Z,18.00
2022-10-22T18:21:39.876Z,18.00
2022-10-22T18:24:10.645Z,18.00
2022-10-22T18:26:38.491Z,18.10
2022-10-22T18:29:06.363Z,18.10
2022-10-22T18:31:34.170Z,18.10
2022-10-22T18:34:02.154Z,18.10
2022-10-22T18:36:30.068Z,18.10
2022-10-22T18:39:01.236Z,18.10
2022-10-22T18:41:31.547Z,18.10
2022-10-22T18:44:01.294Z,18.10
2022-10-22T18:46:30.090Z,18.00
2022-10-22T18:48:59.393Z,17.80
2022-10-22T18:51:30.561Z,17.70
2022-10-22T18:54:05.441Z,17.60
2022-10-22T18:56:47.323Z,17.40
2022-10-22T18:59:18.049Z,17.20
2022-10-22T19:01:45.960Z,17.30
2022-10-22T19:04:14.076Z,17.40
2022-10-22T19:06:45.274Z,17.10
2022-10-22T19:09:13.824Z,17.10
2022-10-22T19:11:41.859Z,16.90
2022-10-22T19:14:11.213Z,16.90
2022-10-22T19:16:39.006Z,16.80
2022-10-22T19:19:08.107Z,16.80
2022-10-22T19:21:36.307Z,16.70
2022-10-22T19:24:04.529Z,16.70
2022-10-22T19:26:32.997Z,16.40
2022-10-22T19:29:01.732Z,16.30
2022-10-22T19:31:31.487Z,16.20
2022-10-22T19:34:00.847Z,16.10
2022-10-22T19:36:30.109Z,16.10
2022-10-22T19:38:58.534Z,16.10
2022-10-22T19:41:31.475Z,16.20
2022-10-22T19:44:00.741Z,16.30
2022-10-22T19:46:33.325Z,16.40
2022-10-22T19:49:02.568Z,16.50
2022-10-22T19:51:33.374Z,16.50
2022-10-22T19:54:05.579Z,16.40
2022-10-22T19:56:35.493Z,16.40
2022-10-22T19:59:09.368Z,16.50
2022-10-22T20:01:39.459Z,16.40
2022-10-22T20:04:07.352Z,16.50
2022-10-22T20:06:35.157Z,16.40
2022-10-22T20:09:03.024Z,16.30
2022-10-22T20:11:31.347Z,16.30
2022-10-22T20:13:59.491Z,16.40
2022-10-22T20:16:32.288Z,16.30
2022-10-22T20:19:04.007Z,16.40
2022-10-22T20:21:33.191Z,16.30
2022-10-22T20:24:02.733Z,16.00
2022-10-22T20:26:32.704Z,16.10
2022-10-22T20:29:00.998Z,16.10
2022-10-22T20:31:30.055Z,16.00
2022-10-22T20:33:59.411Z,15.90
2022-10-22T20:36:30.439Z,15.90
2022-10-22T20:39:01.907Z,16.00
2022-10-22T20:41:34.292Z,16.00
2022-10-22T20:44:02.307Z,16.00
2022-10-22T20:46:42.474Z,15.90
2022-10-22T20:49:13.948Z,16.00
2022-10-22T20:51:43.824Z,16.10
2022-10-22T20:54:15.797Z,15.80
2022-10-22T20:56:44.246Z,15.90
2022-10-22T20:59:12.714Z,15.60
2022-10-22T21:01:42.548Z,15.60
2022-10-22T21:04:10.608Z,15.60
2022-10-22T21:06:40.215Z,15.50
2022-10-22T21:09:11.490Z,15.50
2022-10-22T21:11:40.525Z,15.60
2022-10-22T21:14:12.672Z,15.60
2022-10-22T21:16:42.331Z,15.70
2022-10-22T21:19:10.223Z,15.60
2022-10-22T21:21:38.088Z,15.60
2022-10-22T21:24:06.138Z,15.40
2022-10-22T21:26:37.723Z,15.40
2022-10-22T21:29:05.691Z,15.50
2022-10-22T21:31:33.649Z,15.60
2022-10-22T21:34:01.506Z,15.60
2022-10-22T21:36:32.396Z,15.50
2022-10-22T21:39:03.610Z,15.40
2022-10-22T21:41:31.687Z,15.40
2022-10-22T21:44:00.870Z,15.30
2022-10-22T21:46:29.615Z,15.40
2022-10-22T21:49:01.079Z,15.30
2022-10-22T21:51:30.571Z,15.30
2022-10-22T21:53:58.849Z,15.30
2022-10-22T21:56:32.482Z,15.40
2022-10-22T21:59:02.125Z,15.30
2022-10-22T22:01:30.055Z,15.20
2022-10-22T22:03:58.334Z,15.20
2022-10-22T22:06:30.815Z,15.20
2022-10-22T22:09:00.877Z,15.20
2022-10-22T22:11:29.828Z,15.20
2022-10-22T22:13:59.095Z,15.10
2022-10-22T22:16:29.809Z,15.20
2022-10-22T22:19:00.131Z,15.10
2022-10-22T22:21:28.841Z,15.10
2022-10-22T22:23:57.609Z,15.00
2022-10-22T22:26:29.735Z,15.00
2022-10-22T22:28:58.038Z,14.90
2022-10-22T22:31:29.447Z,14.80
2022-10-22T22:34:01.507Z,14.80
2022-10-22T22:36:33.215Z,14.90
2022-10-22T22:39:01.006Z,14.90
2022-10-22T22:41:28.847Z,14.80
2022-10-22T22:43:56.684Z,14.90
2022-10-22T22:46:24.483Z,15.00
2022-10-22T22:48:53.699Z,14.80
2022-10-22T22:51:24.571Z,14.90
2022-10-22T22:53:52.530Z,14.90
2022-10-22T22:56:22.313Z,14.90
2022-10-22T22:58:50.466Z,14.80
2022-10-22T23:01:20.468Z,14.80
2022-10-22T23:03:49.799Z,14.70
2022-10-22T23:06:19.144Z,14.60
2022-10-22T23:08:50.252Z,14.60
2022-10-22T23:11:18.402Z,14.50
2022-10-22T23:13:46.622Z,14.60
2022-10-22T23:16:17.113Z,14.60
2022-10-22T23:18:45.670Z,14.70
2022-10-22T23:21:15.958Z,14.70
2022-10-22T23:23:45.875Z,14.60
2022-10-22T23:26:14.612Z,14.60
2022-10-22T23:28:42.436Z,14.50
2022-10-22T23:31:13.387Z,14.30
2022-10-22T23:33:41.460Z,14.40
2022-10-22T23:36:09.959Z,14.40
2022-10-22T23:38:39.294Z,14.40
2022-10-22T23:41:08.907Z,14.30
2022-10-22T23:43:37.721Z,14.20
2022-10-22T23:46:06.792Z,14.30
2022-10-22T23:48:34.938Z,14.20
2022-10-22T23:51:05.654Z,14.00
2022-10-22T23:53:33.579Z,14.10
2022-10-22T23:56:05.183Z,14.10
2022-10-22T23:58:35.428Z,14.10
